aviador You're here:

LFOT Decoded Metar

TOURS in FRANCE
Report Time2018-06-17 23:30:00
UTC Time2018-06-17 23:44:06
Flight Rules vfr VFR
Wind250° at 07 kt
W.Decomp.*RWY 20: 4.5 kt HW 5.4 kt RCW
W.Rank250° ranks 1
Current wind is below 250° avg. (7.5)
Visibility9999 m
Phenomena:N/A
Clouds:Few 024 Hf
Overcast 039 Hf
Expected CloudBase > 1,600 ft AGL from Temp-Dew spread
Ceiling3,900 ft
Temp16°C (ISA +2)
Dew Point12°C (77% RH)
AAT14.1°C
QNH1023 hPa
Density Alt407 ft
Elevation354 ft
Report Wrong Elevation
Raw Report
LFOT 172330Z AUTO 25007KT 9999 FEW024 OVC039 16/12 Q1023 NOSIG=

Extra information for LFOT:More info

Metar Taf Metar & Taf Last 4 Metars F.Rules Stats Wind Profile Meteogram Temp Stats Airport Information Weather charts Add Link Nearby VenuesMetar ALERT Operation Metar Decoded Social comments